createdAt,value
2023-03-20T00:02:19.426Z,6.39
2023-03-20T00:04:46.253Z,6.43
2023-03-20T00:07:13.860Z,6.42
2023-03-20T00:09:40.800Z,6.31
2023-03-20T00:12:11.650Z,6.46
2023-03-20T00:14:38.609Z,6.41
2023-03-20T00:17:10.953Z,6.48
2023-03-20T00:19:37.833Z,6.58
2023-03-20T00:22:04.878Z,6.52
2023-03-20T00:24:32.027Z,6.42
2023-03-20T00:26:58.836Z,6.41
2023-03-20T00:29:30.988Z,6.41
2023-03-20T00:31:59.129Z,6.40
2023-03-20T00:34:29.074Z,6.44
2023-03-20T00:36:56.527Z,6.45
2023-03-20T00:39:24.020Z,6.27
2023-03-20T00:41:56.555Z,6.40
2023-03-20T00:44:30.594Z,6.40
2023-03-20T00:47:00.006Z,6.37
2023-03-20T00:49:33.197Z,6.35
2023-03-20T00:52:01.449Z,6.33
2023-03-20T00:54:28.689Z,6.34
2023-03-20T00:57:02.463Z,6.36
2023-03-20T00:59:32.620Z,6.29
2023-03-20T01:02:00.664Z,6.22
2023-03-20T01:04:34.995Z,6.23
2023-03-20T01:07:02.012Z,6.26
2023-03-20T01:09:28.828Z,6.38
2023-03-20T01:11:55.781Z,6.30
2023-03-20T01:14:22.577Z,6.30
2023-03-20T01:16:49.497Z,6.28
2023-03-20T01:19:16.926Z,6.37
2023-03-20T01:21:44.321Z,6.28
2023-03-20T01:24:11.067Z,6.28
2023-03-20T01:26:40.072Z,6.24
2023-03-20T01:29:23.593Z,6.28
2023-03-20T01:31:51.835Z,6.25
2023-03-20T01:34:21.060Z,6.23
2023-03-20T01:36:51.970Z,6.20
2023-03-20T01:39:22.016Z,6.19
2023-03-20T01:41:51.036Z,6.14
2023-03-20T01:44:22.564Z,6.03
2023-03-20T01:46:54.382Z,5.98
2023-03-20T01:49:21.324Z,5.95
2023-03-20T01:51:51.196Z,5.78
2023-03-20T01:54:23.550Z,5.72
2023-03-20T01:57:15.737Z,5.75
2023-03-20T01:59:52.977Z,5.59
2023-03-20T02:02:25.023Z,5.40
2023-03-20T02:04:55.681Z,5.37
2023-03-20T02:07:23.908Z,5.58
2023-03-20T02:10:05.509Z,5.57
2023-03-20T02:12:44.360Z,5.22
2023-03-20T02:15:15.485Z,5.18
2023-03-20T02:17:53.117Z,5.17
2023-03-20T02:20:43.285Z,5.25
2023-03-20T02:23:19.560Z,5.24
2023-03-20T02:26:12.141Z,5.00
2023-03-20T02:28:48.576Z,4.91
2023-03-20T02:31:34.614Z,4.89
2023-03-20T02:34:14.625Z,5.01
2023-03-20T02:36:41.626Z,4.93
2023-03-20T02:39:12.219Z,5.04
2023-03-20T02:41:52.175Z,5.03
2023-03-20T02:44:31.561Z,5.06
2023-03-20T02:47:09.729Z,4.99
2023-03-20T02:50:08.858Z,4.89
2023-03-20T02:53:14.687Z,4.90
2023-03-20T02:55:44.337Z,4.89
2023-03-20T02:58:22.436Z,4.85
2023-03-20T03:00:53.232Z,4.76
2023-03-20T03:03:27.810Z,4.55
2023-03-20T03:05:59.812Z,4.27
2023-03-20T03:08:31.503Z,4.22
2023-03-20T03:11:03.538Z,4.37
2023-03-20T03:13:32.573Z,4.35
2023-03-20T03:16:12.912Z,4.39
2023-03-20T03:18:41.314Z,4.40
2023-03-20T03:21:09.432Z,4.48
2023-03-20T03:23:44.849Z,4.14
2023-03-20T03:26:34.288Z,4.01
2023-03-20T03:29:04.115Z,4.14
2023-03-20T03:31:31.943Z,4.28
2023-03-20T03:34:00.369Z,4.31
2023-03-20T03:36:30.346Z,4.36
2023-03-20T03:39:27.676Z,4.02
2023-03-20T03:42:15.871Z,4.16
2023-03-20T03:45:09.682Z,4.23
2023-03-20T03:47:45.758Z,3.88
2023-03-20T03:50:32.736Z,3.77
2023-03-20T03:53:07.004Z,3.58
2023-03-20T03:55:43.782Z,3.48
2023-03-20T03:58:25.534Z,3.38
2023-03-20T04:00:53.222Z,3.71
2023-03-20T04:03:23.890Z,3.98
2023-03-20T04:05:52.490Z,3.90
2023-03-20T04:08:20.214Z,3.69
2023-03-20T04:10:47.272Z,3.68
2023-03-20T04:13:14.169Z,3.65
2023-03-20T04:15:41.577Z,3.54
2023-03-20T04:18:17.941Z,3.66
2023-03-20T04:20:47.556Z,3.59
2023-03-20T04:23:15.950Z,3.65
2023-03-20T04:25:43.236Z,3.65
2023-03-20T04:28:11.679Z,3.59
2023-03-20T04:31:11.017Z,3.59
2023-03-20T04:33:49.297Z,3.61
2023-03-20T04:36:32.520Z,3.38
2023-03-20T04:38:59.799Z,3.37
2023-03-20T04:41:26.868Z,3.52
2023-03-20T04:43:56.882Z,3.57
2023-03-20T04:46:24.536Z,3.59
2023-03-20T04:48:51.596Z,3.60
2023-03-20T04:51:19.377Z,3.59
2023-03-20T04:53:51.116Z,3.55
2023-03-20T04:56:18.251Z,3.49
2023-03-20T04:58:46.192Z,3.22
2023-03-20T05:01:14.179Z,3.52
2023-03-20T05:03:41.244Z,3.25
2023-03-20T05:06:08.879Z,3.27
2023-03-20T05:08:38.011Z,3.36
2023-03-20T05:11:06.098Z,3.59
2023-03-20T05:13:51.750Z,3.55
2023-03-20T05:16:28.823Z,3.51
2023-03-20T05:19:16.014Z,3.47
2023-03-20T05:22:12.025Z,3.30
2023-03-20T05:25:01.073Z,3.21
2023-03-20T05:27:41.174Z,3.22
2023-03-20T05:30:46.509Z,3.26
2023-03-20T05:33:16.403Z,3.17
2023-03-20T05:36:01.903Z,3.14
2023-03-20T05:38:36.732Z,3.07
2023-03-20T05:41:16.783Z,3.12
2023-03-20T05:44:02.134Z,2.91
2023-03-20T05:46:55.041Z,3.01
2023-03-20T05:49:48.198Z,2.85
2023-03-20T05:52:33.765Z,2.64
2023-03-20T05:55:21.513Z,2.67
2023-03-20T05:58:08.632Z,2.71
2023-03-20T06:00:57.931Z,2.69
2023-03-20T06:03:44.812Z,2.69
2023-03-20T06:06:17.863Z,2.58
2023-03-20T06:08:49.121Z,2.48
2023-03-20T06:11:16.500Z,2.41
2023-03-20T06:13:44.043Z,2.47
2023-03-20T06:16:11.960Z,2.53
2023-03-20T06:18:39.393Z,2.63
2023-03-20T06:21:08.090Z,2.77
2023-03-20T06:23:35.102Z,2.80
2023-03-20T06:26:02.802Z,2.89
2023-03-20T06:28:38.002Z,2.84
2023-03-20T06:31:09.289Z,2.98
2023-03-20T06:33:38.190Z,2.83
2023-03-20T06:36:05.503Z,2.88
2023-03-20T06:38:32.826Z,3.06
2023-03-20T06:41:05.658Z,3.12
2023-03-20T06:43:32.987Z,3.11
2023-03-20T06:46:00.343Z,3.08
2023-03-20T06:48:29.610Z,3.17
2023-03-20T06:50:56.907Z,2.71
2023-03-20T06:53:31.220Z,2.29
2023-03-20T06:56:14.163Z,3.11
2023-03-20T06:58:41.528Z,3.04
2023-03-20T07:01:10.643Z,3.40
2023-03-20T07:03:37.591Z,2.99
2023-03-20T07:06:05.301Z,3.16
2023-03-20T07:08:35.077Z,2.98
2023-03-20T07:11:04.323Z,3.25
2023-03-20T07:13:32.625Z,2.98
2023-03-20T07:16:07.585Z,3.32
2023-03-20T07:18:38.281Z,3.49
2023-03-20T07:21:06.450Z,3.70
2023-03-20T07:23:37.214Z,3.53
2023-03-20T07:26:05.596Z,3.58
2023-03-20T07:28:33.482Z,3.36
2023-03-20T07:31:26.426Z,3.52
2023-03-20T07:34:01.814Z,3.17
2023-03-20T07:36:29.176Z,3.41
2023-03-20T07:38:56.055Z,3.62
2023-03-20T07:41:22.891Z,3.67
2023-03-20T07:44:00.113Z,3.77
2023-03-20T07:47:06.498Z,3.62
2023-03-20T07:49:33.810Z,3.64
2023-03-20T07:52:01.022Z,3.45
2023-03-20T07:54:29.928Z,3.40
2023-03-20T07:56:57.948Z,3.54
2023-03-20T07:59:24.850Z,3.77
2023-03-20T08:01:52.350Z,3.89
2023-03-20T08:04:22.399Z,3.97
2023-03-20T08:06:50.788Z,4.23
2023-03-20T08:09:18.622Z,4.40
2023-03-20T08:11:46.175Z,4.42
2023-03-20T08:14:13.250Z,4.42
2023-03-20T08:16:40.138Z,4.76
2023-03-20T08:19:07.285Z,4.84
2023-03-20T08:21:34.355Z,5.00
2023-03-20T08:24:01.500Z,5.24
2023-03-20T08:26:28.459Z,5.20
2023-03-20T08:28:55.377Z,5.39
2023-03-20T08:31:22.223Z,5.31
2023-03-20T08:33:49.100Z,5.36
2023-03-20T08:36:17.283Z,5.63
2023-03-20T08:38:44.203Z,5.83
2023-03-20T08:41:11.143Z,5.60
2023-03-20T08:43:38.031Z,5.84
2023-03-20T08:46:05.570Z,5.85
2023-03-20T08:48:32.481Z,5.91
2023-03-20T08:50:59.862Z,6.03
2023-03-20T08:53:27.388Z,5.96
2023-03-20T08:55:54.588Z,5.95
2023-03-20T08:58:22.299Z,5.96
2023-03-20T09:00:49.376Z,5.72
2023-03-20T09:03:18.826Z,5.81
2023-03-20T09:05:46.965Z,5.78
2023-03-20T09:08:14.534Z,5.87
2023-03-20T09:10:41.590Z,5.87
2023-03-20T09:13:25.724Z,5.74
2023-03-20T09:15:55.019Z,5.99
2023-03-20T09:18:22.276Z,6.09
2023-03-20T09:20:49.488Z,6.05
2023-03-20T09:23:16.409Z,6.23
2023-03-20T09:25:43.522Z,6.16
2023-03-20T09:28:10.324Z,6.18
2023-03-20T09:30:37.608Z,6.31
2023-03-20T09:33:04.793Z,6.22
2023-03-20T09:35:31.990Z,6.37
2023-03-20T09:37:58.829Z,6.44
2023-03-20T09:40:31.946Z,6.55
2023-03-20T09:43:04.027Z,6.74
2023-03-20T09:45:37.798Z,6.72
2023-03-20T09:48:23.369Z,6.97
2023-03-20T09:50:53.172Z,7.05
2023-03-20T09:53:33.682Z,7.27
2023-03-20T09:56:00.808Z,7.23
2023-03-20T09:58:33.813Z,7.33
2023-03-20T10:01:02.605Z,7.31
2023-03-20T10:03:48.191Z,7.45
2023-03-20T10:06:16.976Z,7.48
2023-03-20T10:08:44.780Z,7.80
2023-03-20T10:11:42.814Z,7.77
2023-03-20T10:14:16.879Z,7.73
2023-03-20T10:16:49.458Z,7.76
2023-03-20T10:19:37.146Z,7.65
2023-03-20T10:22:27.861Z,7.73
2023-03-20T10:25:46.724Z,7.68
2023-03-20T10:28:17.375Z,7.45
2023-03-20T10:31:25.693Z,7.48
2023-03-20T10:33:52.418Z,7.52
2023-03-20T10:36:25.197Z,7.51
2023-03-20T10:39:24.430Z,7.56
2023-03-20T10:41:56.536Z,7.59
2023-03-20T10:44:39.547Z,7.81
2023-03-20T10:47:10.417Z,7.59
2023-03-20T10:49:41.363Z,7.55
2023-03-20T10:52:11.122Z,7.55
2023-03-20T10:54:42.879Z,7.49
2023-03-20T10:57:23.617Z,7.65
2023-03-20T10:59:51.792Z,7.80
2023-03-20T11:02:20.766Z,7.94
2023-03-20T11:04:47.755Z,8.13
2023-03-20T11:07:35.488Z,8.14
2023-03-20T11:10:05.416Z,8.12
2023-03-20T11:12:34.628Z,8.17
2023-03-20T11:15:05.109Z,8.02
2023-03-20T11:17:31.989Z,7.98
2023-03-20T11:20:05.185Z,7.97
2023-03-20T11:22:32.104Z,7.98
2023-03-20T11:25:01.907Z,8.13
2023-03-20T11:27:33.342Z,8.07
2023-03-20T11:30:07.480Z,8.23
2023-03-20T11:32:48.398Z,8.21
2023-03-20T11:35:18.280Z,8.19
2023-03-20T11:37:47.218Z,8.35
2023-03-20T11:40:17.608Z,8.23
2023-03-20T11:42:57.441Z,8.36
2023-03-20T11:45:25.741Z,8.17
2023-03-20T11:47:54.998Z,8.18
2023-03-20T11:50:26.658Z,8.09
2023-03-20T11:52:54.013Z,8.17
2023-03-20T11:55:29.862Z,8.37
2023-03-20T11:57:58.620Z,8.32
2023-03-20T12:00:29.292Z,8.42
2023-03-20T12:02:56.361Z,8.49
2023-03-20T12:05:30.071Z,8.67
2023-03-20T12:07:59.320Z,8.69
2023-03-20T12:10:31.038Z,8.76
2023-03-20T12:13:18.389Z,8.82
2023-03-20T12:15:49.963Z,8.84
2023-03-20T12:18:45.793Z,8.87
2023-03-20T12:21:30.813Z,8.93
2023-03-20T12:24:03.175Z,8.93
2023-03-20T12:26:44.570Z,8.84
2023-03-20T12:29:38.267Z,9.05
2023-03-20T12:32:40.872Z,8.91
2023-03-20T12:35:44.831Z,8.82
2023-03-20T12:38:20.486Z,8.66
2023-03-20T12:40:50.590Z,8.60
2023-03-20T12:43:28.787Z,8.57
2023-03-20T12:46:23.670Z,8.56
2023-03-20T12:49:03.414Z,8.55
2023-03-20T12:51:51.519Z,8.47
2023-03-20T12:54:23.948Z,8.28
2023-03-20T12:57:25.573Z,8.29
2023-03-20T13:00:17.286Z,8.05
2023-03-20T13:03:08.065Z,8.01
2023-03-20T13:06:07.582Z,8.07
2023-03-20T13:09:23.796Z,8.12
2023-03-20T13:12:10.967Z,8.09
2023-03-20T13:14:51.564Z,8.21
2023-03-20T13:17:29.582Z,8.02
2023-03-20T13:20:17.217Z,8.09
2023-03-20T13:22:59.356Z,8.22
2023-03-20T13:25:45.748Z,8.29
2023-03-20T13:28:26.011Z,8.26
2023-03-20T13:31:04.280Z,8.26
2023-03-20T13:33:31.044Z,8.20
2023-03-20T13:36:22.218Z,8.16
2023-03-20T13:38:50.313Z,8.14
2023-03-20T13:41:17.647Z,8.00
2023-03-20T13:43:49.390Z,8.03
2023-03-20T13:46:24.384Z,8.04
2023-03-20T13:48:52.684Z,7.85
2023-03-20T13:51:40.462Z,8.06
2023-03-20T13:54:32.538Z,8.11
2023-03-20T13:57:28.310Z,8.02
2023-03-20T14:00:01.228Z,8.21
2023-03-20T14:02:33.487Z,8.20
2023-03-20T14:05:26.762Z,8.20
2023-03-20T14:07:57.972Z,8.07
2023-03-20T14:10:24.734Z,8.12
2023-03-20T14:13:13.385Z,8.09
2023-03-20T14:15:53.221Z,8.01
2023-03-20T14:18:22.218Z,7.76
2023-03-20T14:21:00.951Z,7.98
2023-03-20T14:23:38.096Z,7.91
2023-03-20T14:26:10.165Z,7.93
2023-03-20T14:29:03.233Z,8.04
2023-03-20T14:31:34.228Z,8.02
2023-03-20T14:34:11.952Z,8.14
2023-03-20T14:37:05.700Z,8.22
2023-03-20T14:39:51.692Z,8.18
2023-03-20T14:42:26.181Z,8.13
2023-03-20T14:45:20.907Z,8.06
2023-03-20T14:48:06.008Z,7.89
2023-03-20T14:50:40.099Z,7.82
2023-03-20T14:53:17.339Z,7.93
2023-03-20T14:55:56.539Z,7.75
2023-03-20T14:58:44.097Z,7.80
2023-03-20T15:01:24.904Z,7.84
2023-03-20T15:03:57.712Z,7.70
2023-03-20T15:06:26.521Z,7.77
2023-03-20T15:08:59.134Z,7.69
2023-03-20T15:11:26.548Z,7.70
2023-03-20T15:13:53.707Z,7.69
2023-03-20T15:16:29.682Z,7.54
2023-03-20T15:18:57.038Z,7.57
2023-03-20T15:21:38.121Z,7.49
2023-03-20T15:24:05.977Z,7.60
2023-03-20T15:26:34.787Z,7.61
2023-03-20T15:29:05.948Z,7.58
2023-03-20T15:31:35.797Z,7.55
2023-03-20T15:34:07.189Z,7.60
2023-03-20T15:36:37.081Z,7.66
2023-03-20T15:39:27.076Z,7.61
2023-03-20T15:42:03.847Z,7.51
2023-03-20T15:44:38.426Z,7.47
2023-03-20T15:47:11.388Z,7.40
2023-03-20T15:49:41.233Z,7.41
2023-03-20T15:52:21.814Z,7.37
2023-03-20T15:54:49.250Z,7.36
2023-03-20T15:57:35.874Z,7.33
2023-03-20T16:00:13.193Z,7.39
2023-03-20T16:02:40.321Z,7.28
2023-03-20T16:05:13.037Z,7.32
2023-03-20T16:07:39.985Z,7.19
2023-03-20T16:10:21.237Z,7.34
2023-03-20T16:12:54.655Z,7.28
2023-03-20T16:15:25.549Z,7.26
2023-03-20T16:17:55.481Z,7.27
2023-03-20T16:20:23.297Z,7.29
2023-03-20T16:22:51.935Z,7.30
2023-03-20T16:25:19.949Z,7.25
2023-03-20T16:27:50.118Z,7.28
2023-03-20T16:30:20.430Z,7.21
2023-03-20T16:32:51.265Z,7.24
2023-03-20T16:35:19.153Z,7.25
2023-03-20T16:38:25.195Z,7.27
2023-03-20T16:40:58.472Z,7.16
2023-03-20T16:43:31.385Z,7.14
2023-03-20T16:46:04.741Z,7.13
2023-03-20T16:48:33.780Z,7.14
2023-03-20T16:51:11.316Z,7.16
2023-03-20T16:53:42.013Z,7.07
2023-03-20T16:56:12.686Z,7.02
2023-03-20T16:58:41.338Z,7.05
2023-03-20T17:01:15.903Z,7.12
2023-03-20T17:03:56.122Z,7.08
2023-03-20T17:06:22.995Z,7.05
2023-03-20T17:09:01.388Z,6.95
2023-03-20T17:11:36.151Z,7.06
2023-03-20T17:14:04.517Z,6.97
2023-03-20T17:16:32.981Z,6.96
2023-03-20T17:19:10.670Z,6.96
2023-03-20T17:21:37.662Z,6.84
2023-03-20T17:24:04.849Z,6.93
2023-03-20T17:26:31.857Z,6.88
2023-03-20T17:28:59.005Z,6.93
2023-03-20T17:31:25.892Z,6.98
2023-03-20T17:33:53.266Z,6.95
2023-03-20T17:36:34.500Z,6.98
2023-03-20T17:39:01.702Z,6.92
2023-03-20T17:41:29.091Z,6.90
2023-03-20T17:43:58.597Z,6.87
2023-03-20T17:46:28.069Z,6.85
2023-03-20T17:49:04.761Z,6.88
2023-03-20T17:51:31.762Z,6.87
2023-03-20T17:53:58.537Z,6.91
2023-03-20T17:56:33.053Z,6.88
2023-03-20T17:59:01.067Z,6.93
2023-03-20T18:01:31.738Z,6.78
2023-03-20T18:03:59.489Z,6.88
2023-03-20T18:06:27.552Z,6.77
2023-03-20T18:08:55.574Z,6.66
2023-03-20T18:11:22.462Z,6.61
2023-03-20T18:13:49.311Z,6.61
2023-03-20T18:16:24.926Z,6.60
2023-03-20T18:18:53.056Z,6.58
2023-03-20T18:21:20.366Z,6.58
2023-03-20T18:23:47.318Z,6.58
2023-03-20T18:26:25.638Z,6.53
2023-03-20T18:28:53.715Z,6.61
2023-03-20T18:31:21.156Z,6.62
2023-03-20T18:33:49.506Z,6.66
2023-03-20T18:36:18.073Z,6.65
2023-03-20T18:38:45.181Z,6.65
2023-03-20T18:41:12.000Z,6.67
2023-03-20T18:43:39.900Z,6.65
2023-03-20T18:46:07.227Z,6.61
2023-03-20T18:48:34.054Z,6.61
2023-03-20T18:51:02.027Z,6.59
2023-03-20T18:53:30.274Z,6.61
2023-03-20T18:55:57.213Z,6.51
2023-03-20T18:58:29.246Z,6.58
2023-03-20T19:00:57.145Z,6.56
2023-03-20T19:03:24.855Z,6.58
2023-03-20T19:05:53.368Z,6.52
2023-03-20T19:08:20.648Z,6.50
2023-03-20T19:10:50.626Z,6.44
2023-03-20T19:13:22.080Z,6.56
2023-03-20T19:15:49.176Z,6.56
2023-03-20T19:18:19.230Z,6.58
2023-03-20T19:20:48.527Z,6.60
2023-03-20T19:23:17.388Z,6.59
2023-03-20T19:25:47.297Z,6.63
2023-03-20T19:28:37.671Z,6.69
2023-03-20T19:31:06.658Z,6.66
2023-03-20T19:33:34.139Z,6.78
2023-03-20T19:36:03.791Z,6.80
2023-03-20T19:38:31.530Z,6.75
2023-03-20T19:41:00.064Z,6.72
2023-03-20T19:43:29.091Z,6.73
2023-03-20T19:45:58.765Z,6.74
2023-03-20T19:51:24.341Z,6.75
2023-03-20T19:53:51.164Z,6.79
2023-03-20T19:56:21.506Z,6.73
2023-03-20T19:58:48.722Z,6.78
2023-03-20T20:01:21.401Z,6.80
2023-03-20T20:03:49.891Z,6.68
2023-03-20T20:06:18.969Z,6.72
2023-03-20T20:08:49.437Z,6.75
2023-03-20T20:11:21.008Z,6.75
2023-03-20T20:14:05.537Z,6.79
2023-03-20T20:16:39.672Z,6.80
2023-03-20T20:19:06.994Z,6.68
2023-03-20T20:24:20.935Z,6.76
2023-03-20T20:27:11.375Z,6.89
2023-03-20T20:29:39.073Z,6.76
2023-03-20T20:32:06.152Z,6.80
2023-03-20T20:35:30.225Z,6.96
2023-03-20T20:40:13.068Z,6.93
2023-03-20T20:42:40.601Z,6.95
2023-03-20T20:45:09.499Z,6.94
2023-03-20T20:47:36.757Z,6.97
2023-03-20T20:50:04.214Z,6.93
2023-03-20T20:52:31.592Z,6.89
2023-03-20T20:55:14.479Z,6.86
2023-03-20T20:57:46.884Z,6.80
2023-03-20T21:00:14.591Z,6.87
2023-03-20T21:02:42.877Z,6.84
2023-03-20T21:05:12.042Z,6.81
2023-03-20T21:07:42.364Z,6.85
2023-03-20T21:10:11.195Z,6.86
2023-03-20T21:12:48.372Z,6.86
2023-03-20T21:15:23.048Z,6.88
2023-03-20T21:18:00.102Z,6.87
2023-03-20T21:20:28.232Z,6.85
2023-03-20T21:22:54.999Z,6.83
2023-03-20T21:25:38.696Z,6.85
2023-03-20T21:28:07.268Z,6.86
2023-03-20T21:30:34.352Z,6.92
2023-03-20T21:33:01.234Z,6.91
2023-03-20T21:35:28.789Z,6.81
2023-03-20T21:40:43.096Z,6.85
2023-03-20T21:43:11.272Z,6.80
2023-03-20T21:46:25.150Z,6.84
2023-03-20T21:48:58.826Z,6.84
2023-03-20T22:00:05.389Z,6.89
2023-03-20T22:02:26.371Z,6.89
2023-03-20T22:17:08.651Z,6.97
2023-03-20T22:23:07.583Z,6.91
2023-03-20T22:25:15.956Z,6.93
2023-03-20T22:27:58.628Z,7.13
2023-03-20T22:33:49.476Z,6.92
2023-03-20T22:44:50.117Z,6.98
2023-03-20T22:46:52.307Z,7.04
2023-03-20T22:49:19.206Z,6.97
2023-03-20T22:52:04.784Z,6.91
2023-03-20T22:54:33.482Z,6.94
2023-03-20T22:57:00.367Z,6.99
2023-03-20T22:59:27.254Z,7.03
2023-03-20T23:01:54.109Z,7.02
2023-03-20T23:04:21.360Z,7.09
2023-03-20T23:06:48.169Z,7.19
2023-03-20T23:09:15.940Z,7.18
2023-03-20T23:11:43.122Z,7.16
2023-03-20T23:14:20.448Z,7.29
2023-03-20T23:16:48.909Z,7.32
2023-03-20T23:19:15.706Z,7.29
2023-03-20T23:21:42.541Z,7.35
2023-03-20T23:24:09.889Z,7.39
2023-03-20T23:26:36.730Z,7.29
2023-03-20T23:29:03.746Z,7.21
2023-03-20T23:31:30.831Z,7.24
2023-03-20T23:33:58.052Z,7.22
2023-03-20T23:36:40.678Z,7.25
2023-03-20T23:39:09.113Z,7.25
2023-03-20T23:42:03.936Z,7.28
2023-03-20T23:44:23.882Z,7.22
2023-03-20T23:46:50.727Z,7.18
2023-03-20T23:49:17.531Z,7.40
2023-03-20T23:51:44.394Z,7.44
2023-03-20T23:54:11.646Z,7.43
2023-03-20T23:56:38.990Z,7.37
2023-03-20T23:59:18.726Z,7.35
